Time;durP1;ratioP1;P1;durP2;ratioP2;P2;SDS_P1;SDS_P2;PMS_P1;PMS_P2;Temp;Humidity;BMP_temperature;BMP_pressure;BME280_temperature;BME280_humidity;BME280_pressure;Samples;Min_cycle;Max_cycle;Signal;HPM_P1;HPM_P2
2023/05/26 00:02:29;;;;;;;11.70;3.80;;;;;;;14.00;54.30;101684.48;106128;1289;60247;-87
2023/05/26 00:05:16;;;;;;;12.60;4.40;;;;;;;13.92;54.33;101683.20;106182;1289;72981;-87
2023/05/26 00:08:03;;;;;;;13.30;3.70;;;;;;;13.88;54.29;101683.95;106131;1289;67288;-87
2023/05/26 00:10:49;;;;;;;15.20;4.20;;;;;;;13.82;54.37;101683.49;106016;1289;71577;-86
2023/05/26 00:13:35;;;;;;;13.60;3.40;;;;;;;13.79;54.50;101682.14;106058;1289;59418;-86
2023/05/26 00:16:21;;;;;;;13.80;3.70;;;;;;;13.72;54.38;101680.32;106185;1289;59023;-86
2023/05/26 00:19:08;;;;;;;8.20;3.30;;;;;;;13.61;54.44;101677.51;106092;1290;73569;-86
2023/05/26 00:21:54;;;;;;;15.50;3.60;;;;;;;13.50;54.57;101681.11;106285;1288;69372;-86
2023/05/26 00:24:40;;;;;;;12.60;3.80;;;;;;;13.41;54.66;101678.80;105967;1290;157868;-87
2023/05/26 00:27:26;;;;;;;17.50;4.60;;;;;;;13.34;54.64;101679.91;106111;1289;59751;-87
2023/05/26 00:30:12;;;;;;;11.80;3.70;;;;;;;13.29;54.82;101681.35;106135;1289;60366;-86
2023/05/26 00:32:58;;;;;;;12.40;3.60;;;;;;;13.22;54.84;101682.27;106127;1289;74159;-86
2023/05/26 00:35:45;;;;;;;12.90;3.50;;;;;;;13.19;54.87;101685.42;106110;1289;67588;-87
2023/05/26 00:38:31;;;;;;;13.70;4.20;;;;;;;13.11;54.93;101677.15;106130;1289;72709;-87
2023/05/26 00:41:17;;;;;;;11.40;4.00;;;;;;;13.03;54.97;101672.89;106041;1289;59329;-86
2023/05/26 00:44:04;;;;;;;12.60;3.70;;;;;;;12.99;55.08;101673.64;106058;1289;60307;-87
2023/05/26 00:46:50;;;;;;;13.60;3.90;;;;;;;12.94;55.07;101676.30;106103;1289;73145;-87
2023/05/26 00:49:36;;;;;;;;;;;;;;;12.90;55.21;101673.90;106133;1289;67439;-86
2023/05/26 00:52:22;;;;;;;15.70;5.00;;;;;;;12.86;55.28;101676.70;106222;1291;71160;-86
2023/05/26 00:55:10;;;;;;;9.40;4.20;;;;;;;12.82;55.25;101676.39;106051;1288;59163;-86
2023/05/26 00:57:56;;;;;;;11.20;4.00;;;;;;;12.75;55.25;101675.75;106158;1290;60151;-86
2023/05/26 01:00:43;;;;;;;;;;;;;;;12.72;55.46;101670.77;106227;1288;73491;-87
2023/05/26 01:03:30;;;;;;;11.00;3.70;;;;;;;12.66;55.23;101667.35;106050;1289;66827;-87
2023/05/26 01:06:16;;;;;;;14.50;3.70;;;;;;;12.59;55.42;101666.02;106166;1288;70165;-87
2023/05/26 01:09:03;;;;;;;9.00;3.70;;;;;;;12.56;55.45;101668.64;106200;1289;58957;-86
2023/05/26 01:12:37;;;;;;;19.30;3.80;;;;;;;12.52;55.42;101667.27;106041;1289;59231;-89
2023/05/26 01:15:33;;;;;;;9.60;3.40;;;;;;;12.43;55.50;101663.39;105899;1289;73512;-89
2023/05/26 01:18:28;;;;;;;8.10;2.60;;;;;;;12.40;55.47;101662.55;106143;1288;67553;-89
2023/05/26 01:21:14;;;;;;;7.80;2.60;;;;;;;12.35;55.50;101664.66;106121;1289;71296;-89
2023/05/26 01:24:16;;;;;;;9.70;3.40;;;;;;;12.27;55.54;101664.02;106261;1289;58918;-89
2023/05/26 01:27:18;;;;;;;8.40;3.00;;;;;;;12.21;55.59;101664.75;106128;1289;60247;-89
2023/05/26 01:30:05;;;;;;;7.60;2.90;;;;;;;12.18;55.59;101661.82;106135;1288;73182;-89
2023/05/26 01:32:51;;;;;;;12.00;3.90;;;;;;;12.14;55.71;101666.52;106095;1289;69716;-89
2023/05/26 01:35:37;;;;;;;17.00;4.60;;;;;;;12.07;55.73;101661.02;106074;1289;72001;-89
2023/05/26 01:38:24;;;;;;;;;;;;;;;12.02;55.83;101659.66;106324;1289;59484;-90
2023/05/26 01:41:21;;;;;;;13.20;3.60;;;;;;;11.98;55.90;101661.92;106153;1291;59390;-90
2023/05/26 01:44:35;;;;;;;21.30;4.20;;;;;;;11.94;55.98;101667.52;106084;1289;73272;-90
2023/05/26 01:47:25;;;;;;;12.60;4.00;;;;;;;11.87;55.97;101666.67;106190;1289;66289;-89
2023/05/26 01:50:12;;;;;;;12.80;3.80;;;;;;;11.81;56.06;101669.64;106110;1289;71441;-89
2023/05/26 01:53:02;;;;;;;7.70;3.70;;;;;;;11.72;56.00;101668.60;106152;1289;58851;-90
2023/05/26 01:55:56;;;;;;;8.70;3.60;;;;;;;11.67;56.03;101669.13;106167;1290;59564;-91
2023/05/26 01:58:45;;;;;;;10.10;3.20;;;;;;;11.62;56.13;101668.98;105968;1291;74293;-89
2023/05/26 02:01:33;;;;;;;11.20;3.10;;;;;;;11.57;56.12;101668.65;105957;1291;67933;-89
2023/05/26 02:04:19;;;;;;;10.50;3.70;;;;;;;11.52;56.22;101667.46;106122;1289;71697;-89
2023/05/26 02:07:07;;;;;;;8.10;3.20;;;;;;;11.47;56.26;101666.44;106101;1289;59004;-89
2023/05/26 02:09:53;;;;;;;11.30;4.30;;;;;;;11.43;56.35;101672.16;106134;1289;59240;-89
2023/05/26 02:12:39;;;;;;;11.30;3.70;;;;;;;11.37;56.45;101672.71;106131;1291;74591;-89
2023/05/26 02:15:25;;;;;;;9.50;3.90;;;;;;;11.34;56.53;101676.52;106106;1289;69046;-89
2023/05/26 02:18:11;;;;;;;15.80;4.30;;;;;;;11.31;56.52;101678.08;106091;1289;71391;-88
2023/05/26 02:20:58;;;;;;;14.30;4.20;;;;;;;11.24;56.54;101674.45;106064;1289;59163;-88
2023/05/26 02:23:44;;;;;;;;;;;;;;;11.21;56.64;101674.29;106184;1289;59070;-88
2023/05/26 02:26:30;;;;;;;15.30;4.40;;;;;;;11.14;56.71;101677.92;106141;1289;74473;-88
2023/05/26 02:29:17;;;;;;;8.90;4.00;;;;;;;11.12;56.72;101678.27;106155;1289;68724;-88
2023/05/26 02:32:03;;;;;;;15.80;4.00;;;;;;;11.12;56.81;101683.27;106140;1289;71498;-89
2023/05/26 02:34:49;;;;;;;17.80;4.20;;;;;;;11.10;56.75;101683.10;106043;1289;59062;-90
2023/05/26 02:37:36;;;;;;;13.60;3.80;;;;;;;11.09;56.86;101686.04;106142;1289;59074;-89
2023/05/26 02:40:23;;;;;;;15.70;4.40;;;;;;;11.08;56.74;101688.27;106101;1289;73980;-89
2023/05/26 02:43:09;;;;;;;12.30;4.10;;;;;;;11.06;56.85;101684.31;106174;1289;66725;-89
2023/05/26 02:45:55;;;;;;;18.50;4.60;;;;;;;11.01;56.85;101682.94;106102;1289;72050;-89
2023/05/26 02:48:41;;;;;;;11.20;4.10;;;;;;;10.98;56.93;101682.77;106096;1289;58967;-89
2023/05/26 02:51:28;;;;;;;;;;;;;;;10.97;57.00;101680.52;106157;1289;59069;-89
2023/05/26 02:54:14;;;;;;;13.50;3.90;;;;;;;10.91;57.04;101680.71;106151;1291;74264;-89
2023/05/26 02:57:00;;;;;;;11.10;4.10;;;;;;;10.90;57.06;101676.77;106003;1289;68701;-90
2023/05/26 02:59:47;;;;;;;15.60;4.60;;;;;;;10.88;57.14;101677.63;106093;1289;71345;-88
2023/05/26 03:02:33;;;;;;;13.80;4.10;;;;;;;10.84;57.12;101679.86;106063;1290;59391;-88
2023/05/26 03:05:19;;;;;;;10.10;3.80;;;;;;;10.81;57.26;101675.89;106155;1289;58970;-89
2023/05/26 03:08:06;;;;;;;13.40;4.40;;;;;;;10.83;57.26;101678.14;106132;1289;75312;-89
2023/05/26 03:10:53;;;;;;;;;;;;;;;10.81;57.26;101676.93;106182;1289;68666;-89
2023/05/26 03:13:39;;;;;;;13.60;4.20;;;;;;;10.78;57.35;101672.45;106200;1289;70773;-88
2023/05/26 03:16:25;;;;;;;15.70;4.50;;;;;;;10.76;57.44;101675.90;106092;1289;59102;-88
2023/05/26 03:19:11;;;;;;;20.50;4.60;;;;;;;10.73;57.43;101676.93;106121;1289;59006;-89
2023/05/26 03:21:57;;;;;;;14.10;3.90;;;;;;;10.74;57.49;101681.07;106129;1290;73250;-88
2023/05/26 03:24:44;;;;;;;9.90;4.10;;;;;;;10.73;57.53;101681.23;106156;1289;68515;-88
2023/05/26 03:27:30;;;;;;;16.50;5.20;;;;;;;10.75;57.62;101686.25;106165;1289;70263;-89
2023/05/26 03:30:16;;;;;;;15.40;4.30;;;;;;;10.76;57.64;101680.55;106055;1292;58979;-89
2023/05/26 03:33:02;;;;;;;13.30;4.50;;;;;;;10.78;57.72;101680.38;106124;1291;59375;-88
2023/05/26 03:35:48;;;;;;;13.70;4.30;;;;;;;10.80;57.72;101680.39;106120;1289;72208;-88
2023/05/26 03:38:34;;;;;;;;;;;;;;;10.83;57.76;101677.98;106123;1289;67459;-89
2023/05/26 03:41:21;;;;;;;11.60;3.70;;;;;;;10.86;57.92;101678.84;106183;1291;71762;-89
2023/05/26 03:44:08;;;;;;;16.00;4.20;;;;;;;10.91;57.92;101681.23;106074;1288;59067;-89
2023/05/26 03:46:54;;;;;;;13.10;3.90;;;;;;;10.95;57.97;101677.08;105946;1294;59258;-89
2023/05/26 03:49:40;;;;;;;15.10;4.70;;;;;;;10.99;57.97;101674.48;106077;1289;73194;-89
2023/05/26 03:52:26;;;;;;;14.40;4.70;;;;;;;11.02;57.94;101677.41;106031;1289;67495;-89
2023/05/26 03:55:12;;;;;;;14.70;3.90;;;;;;;11.03;58.04;101673.27;106081;1289;72284;-88
2023/05/26 03:57:59;;;;;;;;;;;;;;;11.07;58.16;101672.06;106106;1289;59418;-89
2023/05/26 04:00:47;;;;;;;17.90;4.70;;;;;;;11.11;58.20;101674.30;106183;1290;60690;-89
2023/05/26 04:03:33;;;;;;;16.70;4.00;;;;;;;11.17;58.25;101671.02;106051;1289;73424;-89
2023/05/26 04:06:22;;;;;;;14.20;3.60;;;;;;;11.26;58.27;101673.94;106210;1289;68367;-89
2023/05/26 04:09:08;;;;;;;12.30;4.10;;;;;;;11.38;58.36;101675.81;106076;1292;73268;-90
2023/05/26 04:11:54;;;;;;;13.20;5.00;;;;;;;11.50;58.33;101676.96;105989;1289;59005;-90
2023/05/26 04:14:40;;;;;;;16.10;4.50;;;;;;;11.59;58.36;101675.73;106026;1289;60018;-90
2023/05/26 04:17:28;;;;;;;;;;;;;;;11.68;58.35;101680.70;106108;1289;74150;-90
2023/05/26 04:20:17;;;;;;;11.70;4.30;;;;;;;11.75;58.38;101684.14;106176;1289;67457;-90
2023/05/26 04:23:03;;;;;;;18.10;4.90;;;;;;;11.78;58.33;101682.77;106083;1289;71456;-88
2023/05/26 04:25:50;;;;;;;12.90;4.90;;;;;;;11.83;58.41;101690.02;106074;1289;59281;-89
2023/05/26 04:28:36;;;;;;;16.90;5.30;;;;;;;11.88;58.34;101688.09;106037;1289;59379;-89
2023/05/26 04:31:22;;;;;;;13.20;4.60;;;;;;;11.93;58.40;101690.84;106012;1289;74370;-89
2023/05/26 04:34:08;;;;;;;20.90;5.80;;;;;;;11.99;58.35;101689.75;105996;1291;68611;-90
2023/05/26 04:36:54;;;;;;;13.90;4.80;;;;;;;12.06;58.41;101692.48;105985;1291;72032;-89
2023/05/26 04:39:41;;;;;;;15.40;4.10;;;;;;;12.10;58.37;101692.98;106108;1289;58562;-86
2023/05/26 04:42:27;;;;;;;19.40;4.80;;;;;;;12.14;58.44;101696.94;106153;1289;58948;-86
2023/05/26 04:45:14;;;;;;;14.70;4.70;;;;;;;12.17;58.44;101697.61;106072;1292;74034;-86
2023/05/26 04:48:00;;;;;;;;;;;;;;;12.22;58.45;101697.06;105957;1289;68418;-87
2023/05/26 04:50:46;;;;;;;;;;;;;;;12.29;58.47;101698.41;106111;1291;72973;-86
2023/05/26 04:53:32;;;;;;;13.30;4.40;;;;;;;12.34;58.39;101701.84;106067;1290;59038;-87
2023/05/26 04:56:20;;;;;;;18.00;4.70;;;;;;;12.42;58.40;101707.67;106108;1289;59172;-86
2023/05/26 04:59:06;;;;;;;25.10;5.40;;;;;;;12.50;58.44;101715.55;106040;1289;73455;-86
2023/05/26 05:01:52;;;;;;;;;;;;;;;12.61;58.41;101712.19;106216;1291;67398;-87
2023/05/26 05:04:42;;;;;;;18.00;5.80;;;;;;;12.70;58.43;101713.86;106184;1289;72221;-87
2023/05/26 05:07:29;;;;;;;20.60;5.30;;;;;;;12.88;58.48;101714.08;106085;1292;59352;-87
2023/05/26 05:10:15;;;;;;;17.70;5.40;;;;;;;13.25;58.63;101710.64;106145;1291;59896;-87
2023/05/26 05:13:01;;;;;;;15.50;4.10;;;;;;;13.78;58.56;101710.40;106064;1289;74035;-87
2023/05/26 05:15:47;;;;;;;;;;;;;;;14.37;58.37;101713.80;106164;1289;67341;-87
2023/05/26 05:18:34;;;;;;;13.40;4.30;;;;;;;14.92;58.14;101708.27;106162;1289;72550;-87
2023/05/26 05:21:24;;;;;;;;;;;;;;;15.44;57.92;101706.64;106070;1289;59893;-87
2023/05/26 05:24:44;;;;;;;16.00;4.30;;;;;;;15.91;57.73;101706.75;106038;1292;58925;-87
2023/05/26 05:27:31;;;;;;;14.30;4.20;;;;;;;16.49;57.53;101703.56;106309;1288;74961;-88
2023/05/26 05:30:19;;;;;;;14.60;4.40;;;;;;;16.79;57.24;101707.55;106027;1289;67475;-87
2023/05/26 05:33:05;;;;;;;14.90;4.40;;;;;;;17.09;57.03;101710.10;106085;1291;71543;-87
2023/05/26 05:35:52;;;;;;;22.80;5.00;;;;;;;17.27;57.04;101710.13;106115;1291;59028;-87
2023/05/26 05:38:39;;;;;;;;;;;;;;;17.69;56.89;101709.19;106026;1290;59931;-88
2023/05/26 05:41:28;;;;;;;18.20;5.60;;;;;;;17.94;56.61;101716.84;106154;1293;75437;-87
2023/05/26 05:44:16;;;;;;;17.30;4.80;;;;;;;18.22;56.47;101718.44;106159;1289;67812;-88
2023/05/26 05:47:06;;;;;;;11.80;3.70;;;;;;;18.61;56.53;101719.86;106258;1290;71242;-87
2023/05/26 05:49:52;;;;;;;12.30;3.70;;;;;;;18.82;55.91;101720.23;106140;1291;59209;-88
2023/05/26 05:52:38;;;;;;;13.60;4.50;;;;;;;19.03;55.87;101722.48;106087;1291;58966;-87
2023/05/26 05:55:24;;;;;;;15.70;4.00;;;;;;;19.32;55.53;101723.78;106197;1289;74100;-87
2023/05/26 05:58:11;;;;;;;;;;;;;;;19.52;55.28;101726.75;106158;1289;67641;-88
2023/05/26 06:00:57;;;;;;;15.70;4.20;;;;;;;19.67;55.12;101728.15;106201;1289;72109;-88
2023/05/26 06:03:44;;;;;;;14.30;4.00;;;;;;;19.68;54.95;101731.77;106242;1291;59005;-88
2023/05/26 06:06:31;;;;;;;;;;;;;;;19.75;54.74;101728.71;106168;1291;59038;-88
2023/05/26 06:09:17;;;;;;;12.10;3.70;;;;;;;19.89;54.58;101725.91;105969;1289;333460;-87
2023/05/26 06:12:06;;;;;;;9.30;3.50;;;;;;;20.04;54.37;101729.88;106076;1291;67410;-87
2023/05/26 06:14:52;;;;;;;11.00;4.50;;;;;;;20.26;53.96;101728.88;106241;1289;71837;-87
2023/05/26 06:17:38;;;;;;;8.90;3.70;;;;;;;20.66;53.91;101732.02;106180;1289;59267;-87
2023/05/26 06:20:29;;;;;;;12.80;4.40;;;;;;;21.17;53.44;101732.55;106091;1289;60355;-88
2023/05/26 06:23:20;;;;;;;11.60;4.00;;;;;;;21.55;53.14;101732.11;106253;1291;72851;-88
2023/05/26 06:26:11;;;;;;;10.90;4.30;;;;;;;21.84;52.72;101733.48;106273;1289;67257;-88
2023/05/26 06:28:58;;;;;;;14.40;4.10;;;;;;;22.27;52.42;101739.37;106095;1289;71396;-88
2023/05/26 06:31:45;;;;;;;14.00;4.40;;;;;;;22.80;52.49;101737.69;106082;1291;59313;-88
2023/05/26 06:34:31;;;;;;;12.30;3.30;;;;;;;23.47;51.93;101734.27;106049;1289;58995;-88
2023/05/26 06:37:17;;;;;;;11.00;3.50;;;;;;;23.85;51.60;101732.24;106236;1289;74067;-88
2023/05/26 06:40:04;;;;;;;95.30;9.10;;;;;;;24.43;51.31;101737.71;106037;1289;67634;-88
2023/05/26 06:42:50;;;;;;;13.00;3.70;;;;;;;24.69;51.14;101734.44;106041;1289;71485;-88
2023/05/26 06:45:37;;;;;;;10.60;4.40;;;;;;;24.70;50.99;101738.45;105887;1289;285130;-88
2023/05/26 06:48:23;;;;;;;9.30;3.70;;;;;;;24.89;50.61;101735.80;106226;1289;59150;-88
2023/05/26 06:51:10;;;;;;;13.30;4.60;;;;;;;25.29;50.26;101741.39;106172;1289;74292;-88
2023/05/26 06:54:05;;;;;;;7.70;3.30;;;;;;;25.35;48.82;101742.73;106136;1289;68633;-88
2023/05/26 06:56:51;;;;;;;14.10;4.40;;;;;;;25.80;48.82;101744.76;105978;1289;72586;-88
2023/05/26 06:59:37;;;;;;;;;;;;;;;26.43;48.14;101746.04;106093;1292;59132;-88
2023/05/26 07:02:23;;;;;;;13.60;3.70;;;;;;;27.15;48.01;101747.08;106149;1289;59239;-86
2023/05/26 07:05:09;;;;;;;10.20;3.80;;;;;;;27.93;47.40;101744.89;106122;1290;75152;-85
2023/05/26 07:07:56;;;;;;;9.90;4.00;;;;;;;28.71;46.89;101750.67;106141;1292;66467;-86
2023/05/26 07:10:42;;;;;;;10.50;3.60;;;;;;;29.29;46.48;101743.27;106110;1292;72285;-86
2023/05/26 07:13:28;;;;;;;11.50;4.50;;;;;;;29.71;46.16;101744.42;106157;1289;58881;-86
2023/05/26 07:16:14;;;;;;;11.00;3.80;;;;;;;29.56;46.36;101741.18;106050;1292;59043;-86
2023/05/26 07:19:01;;;;;;;11.90;4.20;;;;;;;29.62;45.76;101740.73;106049;1295;74917;-86
2023/05/26 07:21:47;;;;;;;12.40;4.10;;;;;;;30.34;45.06;101740.83;105928;1294;68593;-86
2023/05/26 07:24:33;;;;;;;8.50;3.50;;;;;;;30.60;44.10;101744.20;106053;1291;73504;-86
2023/05/26 07:27:20;;;;;;;8.50;3.60;;;;;;;29.91;44.03;101745.70;106027;1289;59193;-86
2023/05/26 07:30:07;;;;;;;7.50;3.80;;;;;;;29.72;43.91;101746.70;106098;1291;60102;-86
2023/05/26 07:32:54;;;;;;;7.60;4.20;;;;;;;29.94;42.72;101750.98;106082;1289;73446;-86
2023/05/26 07:35:41;;;;;;;7.30;3.20;;;;;;;29.46;42.50;101755.30;106041;1297;68664;-86
2023/05/26 07:38:27;;;;;;;8.90;4.30;;;;;;;28.88;41.99;101754.03;106295;1290;72385;-86
2023/05/26 07:41:14;;;;;;;12.00;3.90;;;;;;;28.37;41.23;101751.97;105965;1291;59006;-86
2023/05/26 07:44:00;;;;;;;;;;;;;;;29.30;40.47;101753.50;106120;1291;59105;-86
2023/05/26 07:46:46;;;;;;;;;;;;;;;30.48;40.04;101751.73;106171;1290;74628;-85
2023/05/26 07:49:32;;;;;;;10.30;4.20;;;;;;;31.72;39.41;101753.10;106096;1292;67276;-86
2023/05/26 07:52:18;;;;;;;7.60;3.60;;;;;;;32.75;38.84;101761.34;105967;1289;72401;-86
2023/05/26 07:55:04;;;;;;;11.70;3.60;;;;;;;33.33;38.08;101760.95;105845;1295;59432;-86
2023/05/26 07:57:50;;;;;;;9.00;4.20;;;;;;;34.43;37.99;101759.32;106015;1291;59529;-86
2023/05/26 08:00:37;;;;;;;;;;;;;;;35.36;37.51;101760.85;105948;1298;73401;-86
2023/05/26 08:03:23;;;;;;;9.10;4.20;;;;;;;36.25;37.43;101763.98;106070;1289;67159;-86
2023/05/26 08:06:09;;;;;;;8.30;3.80;;;;;;;36.87;36.16;101766.29;106089;1295;71309;-87
2023/05/26 08:08:57;;;;;;;9.70;3.90;;;;;;;37.20;35.74;101766.05;106016;1289;59287;-87
2023/05/26 08:11:44;;;;;;;11.40;4.30;;;;;;;37.29;34.22;101766.96;106086;1289;60302;-86
2023/05/26 08:14:30;;;;;;;10.60;4.30;;;;;;;36.70;33.83;101766.80;106097;1288;75285;-87
2023/05/26 08:17:16;;;;;;;11.40;4.50;;;;;;;37.18;33.73;101765.81;105846;1297;68629;-87
2023/05/26 08:20:04;;;;;;;10.20;4.90;;;;;;;38.04;33.48;101765.26;106006;1290;71472;-87
2023/05/26 08:22:50;;;;;;;9.00;4.20;;;;;;;38.90;32.79;101766.66;106038;1289;59153;-87
2023/05/26 08:25:36;;;;;;;9.80;4.70;;;;;;;39.48;32.57;101764.16;106016;1290;59712;-87
2023/05/26 08:28:23;;;;;;;8.60;4.70;;;;;;;40.13;31.74;101766.95;106148;1292;74481;-87
2023/05/26 08:31:09;;;;;;;9.00;4.90;;;;;;;40.50;31.13;101765.61;105900;1290;67754;-87
2023/05/26 08:34:35;;;;;;;9.30;5.10;;;;;;;40.72;30.52;101763.17;106151;1289;70501;-87
2023/05/26 08:37:23;;;;;;;9.00;5.70;;;;;;;40.50;29.76;101759.61;105880;1289;59291;-87
2023/05/26 08:40:09;;;;;;;9.10;5.80;;;;;;;40.60;29.25;101761.40;106199;1290;59092;-87
2023/05/26 08:43:34;;;;;;;8.90;4.90;;;;;;;40.62;28.22;101758.98;105932;1290;73140;-87
2023/05/26 08:46:54;;;;;;;9.30;4.80;;;;;;;41.09;28.23;101764.50;105891;1290;67838;-87
2023/05/26 08:50:37;;;;;;;11.50;5.30;;;;;;;41.35;27.69;101761.35;106119;1289;71179;-87
2023/05/26 08:53:59;;;;;;;11.00;5.00;;;;;;;40.55;26.86;101750.30;105366;1299;59365;-87
2023/05/26 08:57:05;;;;;;;12.00;4.70;;;;;;;37.31;26.19;101746.66;105475;1297;59287;-86
2023/05/26 08:59:54;;;;;;;8.90;5.10;;;;;;;34.35;26.07;101743.84;105223;1302;73204;-86
2023/05/26 09:02:40;;;;;;;12.40;4.50;;;;;;;32.45;25.97;101743.49;105391;1299;67348;-86
2023/05/26 09:05:28;;;;;;;10.50;4.40;;;;;;;30.86;25.36;101745.53;105338;1298;71595;-86
2023/05/26 09:08:15;;;;;;;8.20;3.70;;;;;;;29.32;25.62;101743.95;105350;1303;59360;-85
2023/05/26 09:11:20;;;;;;;13.70;4.50;;;;;;;28.27;25.51;101738.36;105259;1299;59816;-85
2023/05/26 09:14:07;;;;;;;10.80;5.10;;;;;;;27.19;25.50;101728.63;105431;1297;75463;-85
2023/05/26 09:16:57;;;;;;;;;;;;;;;26.30;25.52;101732.59;105248;1302;67444;-85
2023/05/26 09:19:43;;;;;;;12.60;4.50;;;;;;;25.48;25.52;101728.67;105170;1300;71351;-85
2023/05/26 09:22:33;;;;;;;11.80;4.60;;;;;;;24.79;25.50;101731.60;105242;1299;59256;-85
2023/05/26 09:25:19;;;;;;;10.10;3.80;;;;;;;24.26;25.83;101733.70;105296;1300;59454;-85
2023/05/26 09:28:07;;;;;;;9.80;3.50;;;;;;;23.86;25.79;101733.79;105231;1303;74436;-85
2023/05/26 09:30:53;;;;;;;12.60;3.30;;;;;;;23.34;25.90;101734.44;105759;1289;69124;-85
2023/05/26 09:33:47;;;;;;;9.80;3.20;;;;;;;22.91;25.99;101731.69;105935;1289;70262;-85
2023/05/26 09:36:36;;;;;;;11.70;4.90;;;;;;;22.51;25.91;101737.35;105876;1290;59330;-85
2023/05/26 09:39:31;;;;;;;8.70;3.50;;;;;;;22.11;26.46;101732.92;106016;1289;59513;-85
2023/05/26 09:42:17;;;;;;;9.60;3.70;;;;;;;21.91;26.71;101729.25;105945;1289;74901;-84
2023/05/26 09:45:03;;;;;;;20.10;4.20;;;;;;;21.81;26.75;101727.27;105942;1304;68667;-85
2023/05/26 09:47:57;;;;;;;12.40;4.20;;;;;;;21.68;26.68;101726.80;106059;1289;72446;-84
2023/05/26 09:50:44;;;;;;;11.90;4.00;;;;;;;21.51;27.05;101725.31;105944;1291;59634;-85
2023/05/26 09:53:30;;;;;;;14.60;3.80;;;;;;;21.40;27.10;101731.20;105992;1291;59330;-85
2023/05/26 09:56:18;;;;;;;11.00;3.60;;;;;;;21.24;27.41;101725.77;105967;1289;73458;-84
2023/05/26 09:59:07;;;;;;;11.00;3.30;;;;;;;21.13;27.32;101727.12;106006;1289;67351;-84
2023/05/26 10:01:54;;;;;;;10.50;3.30;;;;;;;21.00;27.73;101727.48;106043;1289;70858;-85
2023/05/26 10:04:42;;;;;;;9.50;3.40;;;;;;;20.96;28.01;101729.05;105988;1289;59478;-85
2023/05/26 10:07:30;;;;;;;9.20;3.20;;;;;;;20.89;28.02;101726.70;106107;1288;59978;-85
2023/05/26 10:10:17;;;;;;;11.20;4.10;;;;;;;20.81;28.11;101724.23;105998;1289;74520;-84
2023/05/26 10:13:06;;;;;;;61.10;6.10;;;;;;;20.76;28.49;101723.59;106036;1289;67341;-85
2023/05/26 10:15:53;;;;;;;10.00;3.60;;;;;;;20.76;28.48;101723.42;105979;1291;71199;-85
2023/05/26 10:18:40;;;;;;;11.50;3.60;;;;;;;20.76;28.84;101727.78;106029;1289;58924;-84
2023/05/26 10:21:31;;;;;;;11.50;3.70;;;;;;;20.78;28.84;101727.51;105915;1290;59669;-84
2023/05/26 10:24:28;;;;;;;11.70;3.60;;;;;;;20.80;28.97;101720.59;105883;1292;73157;-85
2023/05/26 10:27:21;;;;;;;7.80;3.20;;;;;;;20.81;29.23;101724.56;98504;1290;5002871;-85
2023/05/26 10:30:10;;;;;;;9.70;3.00;;;;;;;20.78;29.32;101719.45;105935;1291;71495;-85
2023/05/26 10:33:08;;;;;;;11.90;3.60;;;;;;;20.71;29.19;101727.66;105992;1291;59391;-84
2023/05/26 10:35:56;;;;;;;11.70;3.50;;;;;;;20.48;29.45;101722.96;105962;1289;58975;-84
2023/05/26 10:38:47;;;;;;;10.90;3.30;;;;;;;20.42;29.70;101723.16;105886;1289;74741;-85
2023/05/26 10:41:47;;;;;;;9.90;3.70;;;;;;;20.44;29.79;101721.02;105936;1289;67551;-84
2023/05/26 10:45:14;;;;;;;10.70;3.30;;;;;;;20.48;30.04;101716.97;106030;1289;71364;-84
2023/05/26 10:48:10;;;;;;;9.40;3.40;;;;;;;20.54;30.17;101722.75;106101;1291;59189;-84
2023/05/26 10:50:59;;;;;;;8.70;3.20;;;;;;;20.56;30.24;101720.18;106002;1289;59448;-84
2023/05/26 10:53:46;;;;;;;7.00;2.60;;;;;;;20.61;30.33;101716.83;106109;1292;73465;-84
2023/05/26 10:56:41;;;;;;;11.20;3.10;;;;;;;20.66;30.39;101717.69;105985;1289;69179;-84
2023/05/26 10:59:36;;;;;;;9.80;3.30;;;;;;;20.60;30.37;101715.67;105860;1289;71878;-84
2023/05/26 11:02:23;;;;;;;9.80;2.90;;;;;;;20.55;30.78;101715.15;105861;1290;59008;-84
2023/05/26 11:05:31;;;;;;;12.00;3.40;;;;;;;20.62;30.80;101714.34;106030;1289;59544;-85
2023/05/26 11:08:22;;;;;;;9.80;3.60;;;;;;;20.67;31.02;101720.44;105851;1289;73213;-84
2023/05/26 11:11:09;;;;;;;11.70;3.40;;;;;;;20.70;31.22;101715.42;105963;1292;67360;-84
2023/05/26 11:14:09;;;;;;;13.60;3.30;;;;;;;20.73;31.34;101713.02;105967;1294;72727;-84
2023/05/26 11:16:59;;;;;;;8.60;2.80;;;;;;;20.63;31.13;101707.62;106078;1289;59161;-84
2023/05/26 11:19:58;;;;;;;8.70;2.60;;;;;;;20.70;31.31;101709.29;105972;1288;60748;-84
2023/05/26 11:22:44;;;;;;;8.70;2.50;;;;;;;20.74;31.30;101713.48;102061;1289;5168973;-84
2023/05/26 11:25:30;;;;;;;9.50;2.70;;;;;;;20.67;31.47;101711.16;106012;1289;67343;-84
2023/05/26 11:28:19;;;;;;;7.10;2.80;;;;;;;20.66;31.41;101706.29;105864;1289;71364;-84
2023/05/26 11:31:12;;;;;;;8.20;2.90;;;;;;;20.53;31.38;101706.63;105971;1291;59121;-84
2023/05/26 11:33:58;;;;;;;9.80;3.30;;;;;;;20.47;31.53;101706.19;105965;1294;59116;-84
2023/05/26 11:36:48;;;;;;;7.20;2.70;;;;;;;20.55;31.59;101704.45;106022;1289;74549;-84
2023/05/26 11:39:38;;;;;;;10.40;5.80;;;;;;;20.59;31.47;101704.99;105971;1289;68185;-84
2023/05/26 11:42:24;;;;;;;6.00;2.90;;;;;;;20.58;31.47;101707.33;105908;1289;72273;-84
2023/05/26 11:45:10;;;;;;;4.70;2.30;;;;;;;20.53;31.50;101702.11;105999;1291;59336;-84
2023/05/26 11:47:57;;;;;;;;;;;;;;;20.43;31.47;101705.08;105963;1289;59086;-84
2023/05/26 11:50:43;;;;;;;9.20;2.90;;;;;;;20.23;31.56;101702.02;105999;1290;73482;-85
2023/05/26 11:53:30;;;;;;;11.70;3.00;;;;;;;20.26;31.82;101696.84;105904;1289;67596;-84
2023/05/26 11:56:16;;;;;;;;;;;;;;;20.34;31.70;101695.45;106004;1289;71483;-84
2023/05/26 11:59:03;;;;;;;9.70;2.70;;;;;;;20.36;31.79;101700.11;105994;1291;59127;-84
2023/05/26 12:01:49;;;;;;;7.70;2.80;;;;;;;20.41;31.77;101697.11;105886;1289;60749;-85
2023/05/26 12:04:35;;;;;;;11.40;2.70;;;;;;;20.45;31.86;101702.05;105935;1289;73309;-85
2023/05/26 12:07:26;;;;;;;9.00;2.50;;;;;;;20.47;31.80;101706.52;105925;1289;67331;-84
2023/05/26 12:10:12;;;;;;;12.20;3.70;;;;;;;20.48;31.83;101703.34;105800;1291;70729;-84
2023/05/26 12:12:59;;;;;;;9.00;2.50;;;;;;;20.56;32.28;101693.02;105997;1289;59274;-84
2023/05/26 12:15:52;;;;;;;11.40;2.70;;;;;;;20.66;32.21;101701.91;105951;1290;59853;-84
2023/05/26 12:19:07;;;;;;;8.10;2.80;;;;;;;20.69;32.16;101700.02;105964;1291;74556;-84
2023/05/26 12:21:59;;;;;;;6.10;2.70;;;;;;;20.74;32.34;101695.97;106038;1289;68100;-84
2023/05/26 12:24:46;;;;;;;8.40;2.90;;;;;;;20.78;32.30;101693.02;105880;1289;72405;-85
2023/05/26 12:27:39;;;;;;;12.10;2.90;;;;;;;20.74;32.26;101692.27;105926;1289;59087;-84
2023/05/26 12:30:27;;;;;;;10.10;3.20;;;;;;;20.70;32.37;101695.26;106017;1289;59188;-84
2023/05/26 12:33:13;;;;;;;8.00;2.70;;;;;;;20.75;32.61;101694.72;105976;1289;74485;-84
2023/05/26 12:36:00;;;;;;;11.10;3.10;;;;;;;20.82;32.54;101696.66;105980;1290;67762;-84
2023/05/26 12:38:46;;;;;;;5.40;2.50;;;;;;;20.83;32.50;101685.91;106046;1289;71302;-84
2023/05/26 12:41:34;;;;;;;12.90;3.20;;;;;;;20.86;32.54;101686.16;106066;1289;59536;-84
2023/05/26 12:44:20;;;;;;;7.50;2.70;;;;;;;20.81;32.49;101684.94;105983;1294;59435;-84
2023/05/26 12:47:06;;;;;;;5.40;2.80;;;;;;;20.84;32.54;101689.74;106077;1289;74028;-84
2023/05/26 12:49:52;;;;;;;;;;;;;;;20.83;32.47;101688.92;106084;1289;67679;-85
2023/05/26 12:52:44;;;;;;;13.20;2.50;;;;;;;20.81;32.51;101688.48;106157;1289;72500;-85
2023/05/26 12:55:31;;;;;;;6.30;2.60;;;;;;;20.82;32.61;101686.34;106009;1289;59140;-84
2023/05/26 12:58:17;;;;;;;9.60;3.00;;;;;;;20.87;32.70;101689.80;106175;1288;59970;-84